Time;durP1;ratioP1;P1;durP2;ratioP2;P2;SDS_P1;SDS_P2;PMS_P1;PMS_P2;Temp;Humidity;BMP_temperature;BMP_pressure;BME280_temperature;BME280_humidity;BME280_pressure;Samples;Min_cycle;Max_cycle;Signal;HPM_P1;HPM_P2
2023/03/04 00:00:32;;;;;;;6.05;3.10;;;;;;;1.86;100.00;97658.56;5158234;27;20448;-65
2023/03/04 00:02:58;;;;;;;9.57;4.25;;;;;;;1.94;100.00;97624.41;5158041;27;20042;-63
2023/03/04 00:05:25;;;;;;;12.57;4.70;;;;;;;1.69;100.00;97638.00;5157843;27;20046;-65
2023/03/04 00:07:52;;;;;;;7.53;3.80;;;;;;;1.53;100.00;97642.56;5158362;27;20410;-63
2023/03/04 00:10:18;;;;;;;8.07;3.90;;;;;;;1.49;100.00;97649.78;5158398;27;20057;-67
2023/03/04 00:12:44;;;;;;;11.48;3.90;;;;;;;1.81;100.00;97648.78;5158435;27;20050;-63
2023/03/04 00:15:11;;;;;;;11.98;4.03;;;;;;;1.77;100.00;97615.47;5157757;27;20047;-66
2023/03/04 00:17:37;;;;;;;7.40;3.72;;;;;;;1.80;100.00;97606.69;5157930;27;20051;-66
2023/03/04 00:20:04;;;;;;;13.35;4.43;;;;;;;1.49;100.00;97547.94;5157794;27;20057;-63
2023/03/04 00:22:30;;;;;;;11.82;4.13;;;;;;;1.67;100.00;97628.69;5158279;27;20047;-62
2023/03/04 00:24:57;;;;;;;8.90;4.68;;;;;;;1.67;100.00;97661.09;5157656;27;20062;-64
2023/03/04 00:27:23;;;;;;;13.25;4.78;;;;;;;1.54;100.00;97653.03;5158117;27;20062;-65
2023/03/04 00:29:49;;;;;;;13.68;6.00;;;;;;;1.57;100.00;97694.78;5158015;27;20046;-65
2023/03/04 00:32:17;;;;;;;13.93;5.00;;;;;;;1.68;100.00;97730.22;5158192;27;20111;-65
2023/03/04 00:34:43;;;;;;;12.82;4.95;;;;;;;1.49;100.00;97801.81;5157787;27;20053;-63
2023/03/04 00:37:09;;;;;;;14.95;6.00;;;;;;;1.09;100.00;97864.53;5157568;27;20143;-65
2023/03/04 00:39:36;;;;;;;15.18;6.47;;;;;;;1.58;100.00;97950.28;5157918;27;20043;-64
2023/03/04 00:42:02;;;;;;;20.63;6.15;;;;;;;1.23;100.00;97950.63;5159645;27;20141;-64
2023/03/04 00:44:28;;;;;;;11.98;6.00;;;;;;;1.21;100.00;97987.97;5161486;27;20110;-66
2023/03/04 00:46:55;;;;;;;16.40;6.18;;;;;;;1.45;100.00;98049.38;5161109;27;20062;-63
2023/03/04 00:49:21;;;;;;;10.57;6.07;;;;;;;1.57;100.00;98032.44;5161564;27;20046;-65
2023/03/04 00:51:47;;;;;;;13.98;6.38;;;;;;;1.25;100.00;98001.59;5160978;27;20042;-65
2023/03/04 00:54:14;;;;;;;12.23;6.55;;;;;;;1.20;100.00;98051.19;5161442;27;20051;-62
2023/03/04 00:56:40;;;;;;;17.63;8.73;;;;;;;1.25;100.00;98067.19;5161219;27;20042;-66
2023/03/04 00:59:07;;;;;;;18.08;6.63;;;;;;;1.13;100.00;98069.81;5161105;27;20046;-64
2023/03/04 01:01:33;;;;;;;16.13;7.63;;;;;;;1.09;100.00;98087.78;5160939;27;20051;-64
2023/03/04 01:03:59;;;;;;;16.60;6.40;;;;;;;0.90;100.00;98097.13;5160795;27;20056;-65
2023/03/04 01:06:25;;;;;;;21.90;8.23;;;;;;;1.07;100.00;98098.13;5161314;27;20047;-62
2023/03/04 01:08:51;;;;;;;14.77;7.53;;;;;;;1.16;100.00;98109.66;5160919;27;20047;-65
2023/03/04 01:11:18;;;;;;;15.60;6.35;;;;;;;1.32;100.00;98110.63;5160969;27;20046;-63
2023/03/04 01:13:45;;;;;;;16.13;6.82;;;;;;;0.96;100.00;98091.53;5160757;27;20057;-67
2023/03/04 01:16:11;;;;;;;17.70;8.52;;;;;;;0.84;100.00;98089.56;5161093;27;20198;-63
2023/03/04 01:18:38;;;;;;;20.33;7.72;;;;;;;0.99;100.00;98102.44;5161149;27;20092;-62
2023/03/04 01:21:05;;;;;;;13.75;7.00;;;;;;;1.32;100.00;98099.06;5161219;27;20043;-62
2023/03/04 01:23:31;;;;;;;16.23;7.70;;;;;;;1.25;100.00;98085.28;5160489;27;20052;-67
2023/03/04 01:25:57;;;;;;;14.10;7.10;;;;;;;0.73;100.00;98088.31;5160452;27;20407;-65
2023/03/04 01:28:24;;;;;;;15.40;7.78;;;;;;;0.79;100.00;98090.50;5160750;27;20046;-67
2023/03/04 01:30:51;;;;;;;14.02;6.72;;;;;;;0.89;100.00;98082.03;5160442;27;20054;-64
2023/03/04 01:33:17;;;;;;;13.63;7.72;;;;;;;1.01;100.00;98086.72;5160698;27;20328;-67
2023/03/04 01:35:43;;;;;;;18.52;7.40;;;;;;;0.93;100.00;98071.38;5160228;27;20047;-65
2023/03/04 01:38:09;;;;;;;16.23;7.82;;;;;;;0.94;100.00;98078.38;5160690;27;20061;-66
2023/03/04 01:40:37;;;;;;;19.38;8.60;;;;;;;1.17;100.00;98068.06;5160371;27;20312;-65
2023/03/04 01:43:03;;;;;;;14.40;7.68;;;;;;;1.02;100.00;98071.31;5160512;27;20051;-65
2023/03/04 01:45:31;;;;;;;19.17;7.85;;;;;;;1.06;100.00;98051.44;5160124;27;20042;-68
2023/03/04 01:47:58;;;;;;;17.73;7.60;;;;;;;1.22;100.00;98048.16;5160647;27;20053;-64
2023/03/04 01:50:30;;;;;;;17.55;8.38;;;;;;;0.87;100.00;98049.22;5160364;27;20057;-67
2023/03/04 01:52:56;;;;;;;17.15;8.35;;;;;;;1.02;100.00;98042.44;5160094;27;20055;-68
2023/03/04 01:55:23;;;;;;;15.60;7.13;;;;;;;1.22;100.00;98051.63;5160059;27;20495;-65
2023/03/04 01:57:51;;;;;;;23.13;9.57;;;;;;;0.87;100.00;98038.41;5160361;27;20083;-67
2023/03/04 02:00:30;;;;;;;19.90;9.00;;;;;;;0.78;100.00;98034.19;5160158;27;20074;-64
2023/03/04 02:03:00;;;;;;;19.98;9.23;;;;;;;0.68;100.00;98005.69;5159858;27;20112;-64
2023/03/04 02:05:28;;;;;;;17.85;7.82;;;;;;;0.78;100.00;97999.13;5160070;27;20043;-66
2023/03/04 02:07:55;;;;;;;22.70;10.48;;;;;;;0.74;100.00;97980.09;5159968;27;20047;-66
2023/03/04 02:10:22;;;;;;;20.40;10.32;;;;;;;0.92;100.00;97989.63;5160203;27;20055;-67
2023/03/04 02:12:48;;;;;;;18.52;9.23;;;;;;;0.67;100.00;97999.50;5159744;27;20062;-66
2023/03/04 02:15:14;;;;;;;22.08;10.57;;;;;;;0.63;100.00;97997.78;5160192;27;20042;-65
2023/03/04 02:17:41;;;;;;;23.60;11.93;;;;;;;0.69;100.00;98008.06;5159535;27;20054;-65
2023/03/04 02:20:17;;;;;;;27.75;11.73;;;;;;;0.78;100.00;97999.91;5159825;27;20085;-67
2023/03/04 02:22:51;;;;;;;26.65;11.43;;;;;;;1.07;100.00;97998.28;5160205;27;20054;-64
2023/03/04 02:25:22;;;;;;;29.80;13.73;;;;;;;1.14;100.00;98003.91;5159666;27;20047;-64
2023/03/04 02:27:49;;;;;;;24.95;12.48;;;;;;;0.84;100.00;98012.09;5159950;27;20054;-67
2023/03/04 02:30:16;;;;;;;24.05;11.05;;;;;;;0.76;100.00;98012.13;5159463;27;20051;-64
2023/03/04 02:32:42;;;;;;;27.35;10.90;;;;;;;0.98;100.00;98005.66;5159828;27;20046;-64
2023/03/04 02:35:13;;;;;;;29.42;11.95;;;;;;;0.89;100.00;97993.00;5159617;27;20089;-66
2023/03/04 02:37:39;;;;;;;26.02;12.55;;;;;;;0.98;100.00;97984.84;5159862;27;20042;-65
2023/03/04 02:40:09;;;;;;;29.08;12.73;;;;;;;1.07;100.00;97980.16;5159231;27;20327;-65
2023/03/04 02:42:35;;;;;;;33.90;13.45;;;;;;;0.97;100.00;97974.34;5159296;27;20050;-66
2023/03/04 02:45:02;;;;;;;22.80;12.18;;;;;;;1.05;100.00;97955.41;5159142;27;20404;-64
2023/03/04 02:47:28;;;;;;;26.13;12.23;;;;;;;0.92;100.00;97929.47;5159196;27;20047;-66
2023/03/04 02:49:55;;;;;;;27.48;12.10;;;;;;;0.91;100.00;97920.59;5159264;27;20043;-65
2023/03/04 02:52:24;;;;;;;29.55;12.10;;;;;;;0.82;100.00;97905.63;5159160;27;20055;-64
2023/03/04 02:54:50;;;;;;;26.85;11.27;;;;;;;1.04;100.00;97883.66;5159490;27;20047;-64
2023/03/04 02:57:17;;;;;;;21.02;11.23;;;;;;;0.88;100.00;97853.03;5159143;27;20051;-67
2023/03/04 02:59:43;;;;;;;23.67;11.55;;;;;;;1.01;100.00;97840.38;5159701;27;20074;-64
2023/03/04 03:02:10;;;;;;;31.33;13.25;;;;;;;0.87;100.00;97835.28;5159002;27;20046;-66
2023/03/04 03:04:39;;;;;;;28.25;13.18;;;;;;;0.72;100.00;97808.91;5158648;27;20064;-68
2023/03/04 03:07:06;;;;;;;26.58;12.35;;;;;;;0.85;100.00;97818.63;5158830;27;20400;-65
2023/03/04 03:09:32;;;;;;;30.52;13.02;;;;;;;0.86;100.00;97787.81;5159402;27;20043;-64
2023/03/04 03:11:58;;;;;;;30.30;12.07;;;;;;;0.58;100.00;97782.25;5159295;27;20388;-66
2023/03/04 03:14:24;;;;;;;26.98;11.52;;;;;;;0.87;100.00;97786.72;5158950;27;20062;-66
2023/03/04 03:16:50;;;;;;;28.15;12.48;;;;;;;0.93;100.00;97753.78;5159066;27;20042;-66
2023/03/04 03:19:17;;;;;;;32.47;12.60;;;;;;;0.91;100.00;97728.25;5158584;27;20042;-65
2023/03/04 03:21:43;;;;;;;34.35;13.70;;;;;;;1.06;100.00;97722.16;5158853;27;20051;-63
2023/03/04 03:24:10;;;;;;;33.10;14.73;;;;;;;1.00;100.00;97707.34;5158541;27;20324;-67
2023/03/04 03:26:36;;;;;;;36.00;15.57;;;;;;;1.08;100.00;97700.25;5158851;27;20050;-64
2023/03/04 03:29:02;;;;;;;29.80;13.27;;;;;;;0.70;100.00;97666.31;5158538;27;20062;-66
2023/03/04 03:31:28;;;;;;;31.92;13.93;;;;;;;0.63;100.00;97639.06;5160845;27;20047;-64
2023/03/04 03:33:54;;;;;;;30.98;15.48;;;;;;;0.58;100.00;97668.97;5160863;27;20046;-65
2023/03/04 03:36:21;;;;;;;25.45;12.60;;;;;;;0.56;100.00;97692.78;5159009;27;20058;-65
2023/03/04 03:38:47;;;;;;;21.75;9.73;;;;;;;1.04;100.00;97696.66;5158733;27;20050;-64
2023/03/04 03:41:14;;;;;;;34.60;14.50;;;;;;;0.81;100.00;97662.03;5158599;27;20057;-67
2023/03/04 03:43:40;;;;;;;35.65;13.27;;;;;;;0.76;100.00;97658.75;5158535;27;20047;-63
2023/03/04 03:46:06;;;;;;;32.65;13.70;;;;;;;0.68;100.00;97641.56;5158191;27;20434;-67
2023/03/04 03:48:32;;;;;;;32.85;13.98;;;;;;;0.56;100.00;97649.63;5158453;27;20057;-65
2023/03/04 03:50:58;;;;;;;29.75;13.40;;;;;;;0.66;100.00;97673.47;5158188;27;20439;-66
2023/03/04 03:53:25;;;;;;;35.83;14.02;;;;;;;0.70;100.00;97642.81;5158496;27;20054;-64
2023/03/04 03:55:52;;;;;;;37.63;14.93;;;;;;;0.66;100.00;97643.81;5158038;27;20412;-66
2023/03/04 03:58:18;;;;;;;32.80;12.43;;;;;;;0.68;100.00;97625.38;5158538;27;20047;-67
2023/03/04 04:00:44;;;;;;;25.52;11.07;;;;;;;1.01;100.00;97603.66;5158074;27;20050;-64
2023/03/04 04:03:13;;;;;;;25.02;12.75;;;;;;;0.62;100.00;97578.97;5158549;27;20064;-67
2023/03/04 04:05:39;;;;;;;31.88;14.45;;;;;;;0.72;100.00;97585.03;5157858;27;20115;-64
2023/03/04 04:08:06;;;;;;;33.65;12.73;;;;;;;0.78;100.00;97552.09;5157930;27;20416;-66
2023/03/04 04:10:33;;;;;;;25.80;12.57;;;;;;;1.01;100.00;97516.53;5158299;27;20432;-65
2023/03/04 04:12:59;;;;;;;30.42;12.25;;;;;;;0.87;100.00;97455.63;5158055;27;20055;-62
2023/03/04 04:15:25;;;;;;;28.85;13.02;;;;;;;0.78;100.00;97427.22;5158038;27;20047;-65
2023/03/04 04:17:51;;;;;;;30.60;13.60;;;;;;;0.78;100.00;97424.53;5161330;27;20047;-62
2023/03/04 04:20:17;;;;;;;27.27;11.77;;;;;;;0.76;100.00;97410.59;5161990;27;20334;-66
2023/03/04 04:22:44;;;;;;;31.35;12.45;;;;;;;0.70;100.00;97413.53;5161614;27;20050;-63
2023/03/04 04:25:10;;;;;;;32.33;13.43;;;;;;;0.79;100.00;97410.69;5161818;27;20046;-66
2023/03/04 04:27:37;;;;;;;24.98;10.00;;;;;;;0.55;100.00;97387.28;5161472;27;20053;-62
2023/03/04 04:30:04;;;;;;;23.20;10.90;;;;;;;0.71;100.00;97371.16;5161752;27;20399;-65
2023/03/04 04:32:30;;;;;;;24.75;11.52;;;;;;;1.09;100.00;97343.66;5161313;27;20327;-63
2023/03/04 04:34:56;;;;;;;26.40;11.93;;;;;;;0.81;100.00;97291.66;5161603;27;20050;-64
2023/03/04 04:37:22;;;;;;;25.23;12.57;;;;;;;0.79;100.00;97294.69;5161495;27;20062;-64
2023/03/04 04:39:50;;;;;;;29.05;12.80;;;;;;;0.86;100.00;97334.56;5161223;27;20442;-65
2023/03/04 04:42:17;;;;;;;25.05;11.38;;;;;;;1.00;100.00;97283.69;5161498;27;20133;-66
2023/03/04 04:44:44;;;;;;;30.63;12.35;;;;;;;0.74;100.00;97238.31;5161105;27;20058;-65
2023/03/04 04:47:10;;;;;;;24.58;12.13;;;;;;;0.91;100.00;97253.38;5161488;27;20050;-63
2023/03/04 04:49:36;;;;;;;26.88;11.13;;;;;;;0.90;100.00;97219.44;5160952;27;20061;-66
2023/03/04 04:52:03;;;;;;;27.77;11.13;;;;;;;0.97;100.00;97175.66;5161084;27;20065;-63
2023/03/04 04:54:29;;;;;;;33.78;12.32;;;;;;;0.88;100.00;97156.97;5161042;27;20047;-63
2023/03/04 04:56:55;;;;;;;21.83;10.18;;;;;;;0.68;100.00;97180.38;5161532;27;20058;-66
2023/03/04 04:59:22;;;;;;;30.08;10.63;;;;;;;0.64;100.00;97226.13;5160962;27;20046;-63
2023/03/04 05:01:49;;;;;;;24.02;11.00;;;;;;;0.93;100.00;97240.31;5161524;27;20328;-63
2023/03/04 05:04:15;;;;;;;27.48;11.85;;;;;;;0.72;100.00;97240.56;5161044;27;20060;-66
2023/03/04 05:06:41;;;;;;;21.73;10.77;;;;;;;0.81;100.00;97268.16;5161012;27;20046;-64
2023/03/04 05:09:07;;;;;;;21.35;9.95;;;;;;;0.93;100.00;97292.38;5160925;27;20054;-65
2023/03/04 05:11:34;;;;;;;30.35;10.93;;;;;;;0.82;100.00;97233.88;5160836;27;20065;-64
2023/03/04 05:14:00;;;;;;;31.08;11.52;;;;;;;0.63;100.00;97266.91;5161356;27;20047;-65
2023/03/04 05:16:26;;;;;;;21.95;9.60;;;;;;;0.98;100.00;97345.28;5160614;27;20420;-64
2023/03/04 05:18:53;;;;;;;22.92;10.70;;;;;;;0.65;100.00;97299.72;5160928;27;20051;-66
2023/03/04 05:21:20;;;;;;;22.25;9.85;;;;;;;0.67;100.00;97335.25;5160595;27;20194;-64
2023/03/04 05:23:46;;;;;;;26.92;11.15;;;;;;;0.80;100.00;97342.16;5161005;27;20443;-67
2023/03/04 05:26:14;;;;;;;30.02;11.73;;;;;;;0.56;100.00;97363.81;5160478;27;20075;-62
2023/03/04 05:28:41;;;;;;;27.35;13.05;;;;;;;0.56;100.00;97404.25;5160453;27;20405;-63
2023/03/04 05:31:07;;;;;;;21.42;10.77;;;;;;;0.88;100.00;97430.22;5160330;27;20087;-65
2023/03/04 05:33:33;;;;;;;27.63;12.15;;;;;;;0.82;100.00;97374.16;5160556;27;20077;-65
2023/03/04 05:36:04;;;;;;;23.98;11.52;;;;;;;0.61;100.00;97360.88;5160636;27;20134;-65
2023/03/04 05:38:30;;;;;;;22.58;11.07;;;;;;;0.90;100.00;97371.31;5160512;27;20055;-66
2023/03/04 05:40:58;;;;;;;20.67;10.20;;;;;;;0.60;100.00;97338.53;5160615;27;20129;-66
2023/03/04 05:43:24;;;;;;;18.48;9.77;;;;;;;0.68;100.00;97340.28;5160477;27;20059;-65
2023/03/04 05:45:51;;;;;;;25.40;11.70;;;;;;;0.92;100.00;97303.50;5160457;27;20053;-66
2023/03/04 05:48:17;;;;;;;24.85;10.43;;;;;;;0.99;100.00;97243.53;5160326;27;20442;-64
2023/03/04 05:50:43;;;;;;;22.38;9.52;;;;;;;0.92;100.00;97168.63;5160403;27;20046;-62
2023/03/04 05:53:10;;;;;;;21.67;9.35;;;;;;;1.15;100.00;97139.06;5159974;27;20567;-67
2023/03/04 05:55:36;;;;;;;24.80;10.90;;;;;;;1.22;100.00;97055.53;5160507;27;20046;-65
2023/03/04 05:58:03;;;;;;;18.52;9.40;;;;;;;1.08;100.00;97015.56;5159960;27;20054;-64
2023/03/04 06:00:29;;;;;;;18.30;8.80;;;;;;;1.22;100.00;97004.25;5160452;27;20061;-64
2023/03/04 06:02:55;;;;;;;18.75;9.38;;;;;;;1.17;100.00;96983.75;5160070;27;20060;-65
2023/03/04 06:05:21;;;;;;;22.92;9.82;;;;;;;1.29;100.00;96955.81;5159804;27;20050;-64
2023/03/04 06:07:48;;;;;;;24.42;9.43;;;;;;;1.27;100.00;96978.91;5159950;27;20047;-66
2023/03/04 06:10:16;;;;;;;20.48;10.80;;;;;;;1.25;100.00;96991.97;5159730;27;20061;-65
2023/03/04 06:12:42;;;;;;;23.42;9.98;;;;;;;1.21;100.00;96921.75;5159909;27;20103;-66
2023/03/04 06:15:09;;;;;;;20.83;10.57;;;;;;;1.30;100.00;96933.09;5159706;27;20047;-65
2023/03/04 06:17:36;;;;;;;17.92;9.05;;;;;;;1.10;100.00;96915.34;5159936;27;20461;-67
2023/03/04 06:20:04;;;;;;;16.92;8.55;;;;;;;1.51;100.00;96935.38;5159630;27;20057;-66
2023/03/04 06:22:30;;;;;;;18.23;8.60;;;;;;;1.57;100.00;96896.13;5160017;27;20478;-64
2023/03/04 06:24:56;;;;;;;20.60;9.30;;;;;;;1.34;100.00;96844.06;5159547;27;20047;-66
2023/03/04 06:27:23;;;;;;;20.88;10.70;;;;;;;1.54;100.00;96906.88;5160016;27;20118;-63
2023/03/04 06:29:49;;;;;;;18.73;9.05;;;;;;;1.55;100.00;96866.00;5159729;27;20350;-66
2023/03/04 06:32:15;;;;;;;22.10;9.25;;;;;;;1.83;100.00;96841.38;5159385;27;20319;-63
2023/03/04 06:34:42;;;;;;;19.63;9.15;;;;;;;1.41;100.00;96842.25;5159759;27;20050;-67
2023/03/04 06:37:08;;;;;;;18.58;8.77;;;;;;;1.69;100.00;96821.47;5159888;27;20073;-63
2023/03/04 06:39:34;;;;;;;18.75;9.73;;;;;;;1.56;100.00;96805.44;5158245;27;20053;-67
2023/03/04 06:42:00;;;;;;;19.48;8.60;;;;;;;1.54;100.00;96796.16;5159506;27;20068;-64
2023/03/04 06:44:27;;;;;;;22.92;10.35;;;;;;;1.64;100.00;96807.13;5159494;27;20051;-65
2023/03/04 06:46:53;;;;;;;19.98;8.23;;;;;;;2.02;100.00;96813.44;5159467;27;20047;-66
2023/03/04 06:49:19;;;;;;;17.85;8.15;;;;;;;1.65;100.00;96773.56;5159633;27;20058;-65
2023/03/04 06:51:46;;;;;;;26.25;9.02;;;;;;;1.56;100.00;96786.53;5159477;27;20109;-66
2023/03/04 06:54:12;;;;;;;19.65;9.13;;;;;;;1.83;100.00;96898.09;5160019;27;20076;-63
2023/03/04 06:56:38;;;;;;;16.58;9.40;;;;;;;1.25;100.00;96962.28;5159545;27;20058;-66
2023/03/04 06:59:04;;;;;;;24.55;9.43;;;;;;;1.54;100.00;97082.41;5159318;27;20058;-63
2023/03/04 07:01:31;;;;;;;18.77;8.85;;;;;;;1.63;100.00;97137.78;5159441;27;20046;-66
2023/03/04 07:03:58;;;;;;;15.57;8.20;;;;;;;1.63;100.00;97132.38;5158849;27;20423;-63
2023/03/04 07:06:26;;;;;;;14.85;7.15;;;;;;;1.77;100.00;97080.53;5159220;27;20323;-63
2023/03/04 07:08:53;;;;;;;20.77;9.60;;;;;;;1.60;100.00;97054.75;5159009;27;20046;-63
2023/03/04 07:11:21;;;;;;;19.90;8.45;;;;;;;1.61;100.00;97096.06;5159036;27;20407;-66
2023/03/04 07:13:48;;;;;;;16.90;8.80;;;;;;;1.80;100.00;97060.13;5158783;27;20054;-65
2023/03/04 07:16:16;;;;;;;16.67;8.77;;;;;;;1.74;100.00;97021.06;5159039;27;20076;-62
2023/03/04 07:18:44;;;;;;;9.63;5.07;;;;;;;1.65;100.00;97083.41;5158579;27;20050;-65
2023/03/04 07:21:11;;;;;;;17.40;9.02;;;;;;;1.27;100.00;97254.25;5159064;27;20051;-65
2023/03/04 07:23:37;;;;;;;19.10;8.30;;;;;;;1.22;100.00;97425.34;5158472;27;20141;-63
2023/03/04 07:26:04;;;;;;;21.65;9.68;;;;;;;1.40;100.00;97528.44;5158511;27;20047;-66
2023/03/04 07:28:30;;;;;;;21.20;9.88;;;;;;;1.44;100.00;97577.91;5158720;27;20404;-67
2023/03/04 07:30:57;;;;;;;19.27;8.93;;;;;;;1.36;100.00;97606.59;5158564;27;20157;-64
2023/03/04 07:33:23;;;;;;;16.75;8.68;;;;;;;0.62;100.00;97629.41;5158504;27;20054;-63
2023/03/04 07:35:58;;;;;;;14.30;7.70;;;;;;;1.05;100.00;97642.34;5158347;27;20396;-69
2023/03/04 07:38:24;;;;;;;16.33;8.30;;;;;;;1.13;100.00;97637.94;5158789;27;20046;-69
2023/03/04 07:40:55;;;;;;;22.23;10.10;;;;;;;1.07;100.00;97636.63;5158344;27;20058;-64
2023/03/04 07:43:21;;;;;;;17.65;9.15;;;;;;;1.23;100.00;97615.88;5158739;27;20323;-63
2023/03/04 07:45:47;;;;;;;18.35;9.30;;;;;;;1.47;100.00;97617.75;5158237;27;20102;-68
2023/03/04 07:48:13;;;;;;;17.92;9.20;;;;;;;1.35;100.00;97623.94;5158598;27;20047;-65
2023/03/04 07:50:40;;;;;;;22.98;11.38;;;;;;;1.38;100.00;97630.59;5157695;27;20336;-67
2023/03/04 07:53:06;;;;;;;16.42;6.60;;;;;;;1.46;100.00;97618.84;5158053;27;20047;-65
2023/03/04 07:55:33;;;;;;;7.47;4.35;;;;;;;1.28;100.00;97639.94;5158076;27;20061;-66
2023/03/04 07:57:59;;;;;;;6.82;3.60;;;;;;;1.26;100.00;97631.38;5158224;27;20130;-64
2023/03/04 08:00:26;;;;;;;7.28;3.10;;;;;;;0.81;100.00;97632.34;5158171;27;20054;-67
2023/03/04 08:02:52;;;;;;;6.03;2.08;;;;;;;0.91;100.00;97633.81;5158134;27;20141;-66
2023/03/04 08:05:18;;;;;;;2.60;1.90;;;;;;;1.14;100.00;97639.53;5158143;27;20065;-66
2023/03/04 08:07:44;;;;;;;3.22;2.00;;;;;;;0.99;100.00;97643.69;5157992;27;20393;-65
2023/03/04 08:10:11;;;;;;;3.90;1.85;;;;;;;1.03;100.00;97652.66;5158114;27;20054;-67
2023/03/04 08:12:38;;;;;;;3.40;1.90;;;;;;;0.87;100.00;97663.38;5158012;27;20089;-67
2023/03/04 08:15:05;;;;;;;2.08;1.30;;;;;;;0.45;100.00;97668.16;5158203;27;20046;-65
2023/03/04 08:17:31;;;;;;;2.90;1.45;;;;;;;0.45;100.00;97676.25;5157966;27;20074;-65
2023/03/04 08:19:57;;;;;;;0.90;0.80;;;;;;;0.26;100.00;97681.38;5158277;27;20047;-65
2023/03/04 08:22:24;;;;;;;1.13;0.60;;;;;;;-0.09;100.00;97669.03;5157792;27;20054;-67
2023/03/04 08:24:50;;;;;;;1.35;0.90;;;;;;;-0.34;100.00;97678.91;5157984;27;20061;-64
2023/03/04 08:27:17;;;;;;;8.00;1.02;;;;;;;-0.42;100.00;97690.53;5157963;27;20103;-66
2023/03/04 08:29:43;;;;;;;2.67;0.98;;;;;;;0.01;100.00;97689.38;5157757;27;20376;-63
2023/03/04 08:32:09;;;;;;;1.48;1.20;;;;;;;-0.01;100.00;97664.69;5157954;27;20050;-65
2023/03/04 08:34:38;;;;;;;1.05;0.80;;;;;;;0.21;100.00;97677.78;5157495;27;20050;-64
2023/03/04 08:37:04;;;;;;;3.60;1.55;;;;;;;0.62;100.00;97662.56;5157965;27;20069;-64
2023/03/04 08:39:32;;;;;;;6.82;0.82;;;;;;;1.11;100.00;97646.38;5157444;27;20134;-67
2023/03/04 08:41:58;;;;;;;1.45;0.90;;;;;;;1.14;100.00;97593.63;5157772;27;20051;-64
2023/03/04 08:44:25;;;;;;;2.05;0.80;;;;;;;1.72;100.00;97533.88;5157724;27;20058;-68
2023/03/04 08:46:51;;;;;;;8.95;1.25;;;;;;;1.91;100.00;97425.13;5157864;27;20085;-66
2023/03/04 08:49:17;;;;;;;3.55;1.10;;;;;;;1.82;100.00;97282.09;5157371;27;20061;-71
2023/03/04 08:51:44;;;;;;;1.35;0.90;;;;;;;2.11;100.00;97124.78;5157225;27;20432;-65
2023/03/04 08:54:10;;;;;;;4.63;1.15;;;;;;;2.40;100.00;96878.41;5157628;27;20101;-65
2023/03/04 08:56:37;;;;;;;0.73;0.73;;;;;;;3.62;100.00;96634.72;5157547;27;20420;-65
2023/03/04 08:59:03;;;;;;;2.15;0.80;;;;;;;4.31;100.00;96305.59;5157288;27;20046;-69
2023/03/04 09:01:30;;;;;;;2.38;0.85;;;;;;;4.80;100.00;96238.69;5156974;27;20107;-67
2023/03/04 09:03:56;;;;;;;5.95;2.60;;;;;;;5.17;100.00;96318.72;5160170;27;20051;-68
2023/03/04 09:06:23;;;;;;;16.98;7.40;;;;;;;5.63;100.00;96386.31;5160773;27;20058;-64
2023/03/04 09:08:49;;;;;;;8.30;2.45;;;;;;;6.43;100.00;96489.81;5161256;27;20103;-69
2023/03/04 09:11:15;;;;;;;2.28;1.20;;;;;;;6.78;100.00;96608.53;5160717;27;20056;-64
2023/03/04 09:13:42;;;;;;;8.75;2.60;;;;;;;6.79;100.00;96604.63;5161075;27;20070;-65
2023/03/04 09:16:10;;;;;;;4.95;1.40;;;;;;;6.92;100.00;96662.88;5160949;27;20317;-66
2023/03/04 09:18:38;;;;;;;1.77;0.80;;;;;;;7.21;100.00;96717.91;5160812;27;20047;-68
2023/03/04 09:21:07;;;;;;;1.08;0.73;;;;;;;7.45;100.00;96754.28;5160898;27;20061;-68
2023/03/04 09:23:34;;;;;;;1.00;0.60;;;;;;;7.63;100.00;96775.97;5160735;27;20051;-67
2023/03/04 09:26:00;;;;;;;4.63;1.60;;;;;;;7.24;100.00;96744.34;5160691;27;20050;-65
2023/03/04 09:28:27;;;;;;;1.42;0.80;;;;;;;7.14;100.00;96767.00;5160475;27;20197;-66
2023/03/04 09:30:53;;;;;;;3.63;1.23;;;;;;;6.39;100.00;96742.16;5160528;27;20043;-68
2023/03/04 09:33:19;;;;;;;3.38;1.10;;;;;;;6.61;100.00;96708.22;5160687;27;20083;-65
2023/03/04 09:35:47;;;;;;;3.40;1.20;;;;;;;7.00;100.00;96739.88;5160585;27;20134;-68
2023/03/04 09:38:13;;;;;;;0.88;0.80;;;;;;;6.69;100.00;96785.19;5160393;27;20059;-65
2023/03/04 09:40:42;;;;;;;1.63;0.73;;;;;;;6.46;100.00;96761.16;5160613;27;20141;-64
2023/03/04 09:43:16;;;;;;;2.10;0.63;;;;;;;6.24;100.00;96765.94;5160405;27;20122;-63
2023/03/04 09:45:47;;;;;;;8.70;1.25;;;;;;;6.31;100.00;96723.16;5160453;27;20138;-67
2023/03/04 09:48:17;;;;;;;1.95;0.93;;;;;;;6.98;100.00;96743.00;5160488;27;20106;-67
2023/03/04 09:50:53;;;;;;;1.30;0.80;;;;;;;6.00;100.00;96729.47;5160207;27;20050;-63
2023/03/04 09:53:22;;;;;;;3.47;0.90;;;;;;;7.03;100.00;96777.19;5160159;27;20434;-63
2023/03/04 09:55:50;;;;;;;1.92;0.80;;;;;;;6.05;100.00;96786.97;5160039;27;20054;-64
2023/03/04 09:58:34;;;;;;;0.98;0.63;;;;;;;6.59;100.00;96778.59;5160411;27;20054;-64
2023/03/04 10:01:06;;;;;;;0.80;0.80;;;;;;;6.47;100.00;96744.47;5160000;27;20054;-65
2023/03/04 10:03:44;;;;;;;6.70;1.25;;;;;;;6.10;100.00;96720.53;5160282;27;20154;-65
2023/03/04 10:06:16;;;;;;;0.50;0.50;;;;;;;6.42;100.00;96730.47;5159972;27;20141;-63
2023/03/04 10:08:52;;;;;;;2.90;0.80;;;;;;;6.50;100.00;96760.00;5160089;27;20070;-63
2023/03/04 10:11:23;;;;;;;2.33;0.82;;;;;;;6.79;100.00;96713.53;5160048;27;20399;-67
2023/03/04 10:14:03;;;;;;;3.05;1.20;;;;;;;6.62;100.00;96707.03;5159819;27;20051;-68
2023/03/04 10:16:35;;;;;;;2.30;0.88;;;;;;;5.86;100.00;96727.56;5160550;27;20046;-65
2023/03/04 10:19:16;;;;;;;5.55;1.17;;;;;;;6.17;100.00;96678.91;5160120;27;20057;-66
2023/03/04 10:21:45;;;;;;;1.65;1.10;;;;;;;6.09;100.00;96699.91;5159872;27;20091;-67
2023/03/04 10:24:16;;;;;;;3.80;0.88;;;;;;;6.43;100.00;96656.63;5159594;27;20081;-67
2023/03/04 10:26:45;;;;;;;2.05;1.08;;;;;;;7.24;100.00;96716.34;5159956;27;20055;-65
2023/03/04 10:29:15;;;;;;;4.70;1.52;;;;;;;7.01;100.00;96692.38;5159856;27;20142;-68
2023/03/04 10:31:42;;;;;;;4.00;1.00;;;;;;;6.75;100.00;96715.53;5159270;27;20046;-68
2023/03/04 10:34:11;;;;;;;7.93;1.33;;;;;;;5.19;100.00;96710.19;5159698;27;20096;-67
2023/03/04 10:36:53;;;;;;;5.35;1.45;;;;;;;6.17;100.00;96670.75;5159495;27;20142;-67
2023/03/04 10:39:25;;;;;;;1.20;0.80;;;;;;;6.62;100.00;96649.09;5159887;27;20046;-66
2023/03/04 10:42:01;;;;;;;7.28;1.90;;;;;;;6.35;100.00;96655.88;5159628;27;20405;-64
2023/03/04 10:44:29;;;;;;;3.70;1.95;;;;;;;7.34;100.00;96685.47;5159515;27;20137;-65
2023/03/04 10:47:01;;;;;;;2.72;1.35;;;;;;;6.79;100.00;96714.31;5159356;27;20046;-65
2023/03/04 10:49:29;;;;;;;2.38;0.70;;;;;;;6.66;100.00;96732.28;5159302;27;20053;-66
2023/03/04 10:52:02;;;;;;;1.48;0.90;;;;;;;6.54;100.00;96730.81;5159339;27;20146;-66
2023/03/04 10:54:34;;;;;;;2.45;1.40;;;;;;;6.22;100.00;96701.03;5158504;27;20134;-65
2023/03/04 10:57:03;;;;;;;2.60;0.80;;;;;;;6.65;100.00;96727.25;5159688;27;20080;-68
2023/03/04 10:59:43;;;;;;;2.25;1.00;;;;;;;6.71;100.00;96740.06;5158925;27;20095;-63
2023/03/04 11:02:26;;;;;;;1.88;0.70;;;;;;;6.13;100.00;96749.63;5158807;27;20404;-63
2023/03/04 11:04:55;;;;;;;1.75;0.77;;;;;;;6.73;100.00;96731.47;5158986;27;20051;-67
2023/03/04 11:07:24;;;;;;;1.70;0.82;;;;;;;6.77;97.13;96748.59;5159117;27;20338;-65
2023/03/04 11:09:51;;;;;;;4.63;1.10;;;;;;;6.64;100.00;96745.53;5159066;27;20426;-65
2023/03/04 11:12:20;;;;;;;5.22;1.02;;;;;;;6.37;100.00;96742.56;5158788;27;20043;-67
2023/03/04 11:14:49;;;;;;;2.72;0.77;;;;;;;5.89;100.00;96746.56;5159074;27;20095;-63
2023/03/04 11:17:21;;;;;;;1.77;0.70;;;;;;;5.04;100.00;96723.00;5158667;27;20323;-63
2023/03/04 11:19:51;;;;;;;2.38;0.82;;;;;;;5.25;100.00;96700.50;5159482;27;20099;-64
2023/03/04 11:22:21;;;;;;;2.85;1.33;;;;;;;4.99;100.00;96644.63;5158721;27;20054;-67
2023/03/04 11:24:59;;;;;;;2.97;1.10;;;;;;;4.99;100.00;96663.66;5158406;27;20306;-64